CheckWX is a tool to help pilots better visualize weather data.  It is not intended as a substitute for an official pre-flight weather briefing.

13:43:09 UTC

SKPE TAF
Matecaña International Airport
Pereira, Colombia
TAF SKPE 231030Z 2312/2412 10008KT 9999 FEW015 SCT080 BECMG 2316/2318 32008KT PROB40 TEMPO 2320/2324 4000 TSRA SCT015CB TX26/2319Z TN18/2411Z

Jan-23@
12:00 UTC

Jan-23 @ 12:00 UTC

Jan-23@
16:00 UTC

Jan-23 @ 16:00 UTC

TAF SKPE 231030Z 2312/2412 10008KT 9999 FEW015 SCT080
Wind
  • 100° at 8 KTS
Cloud Levels
  • Few at 1,500' AGL
  • Scattered at 8,000' AGL

Jan-23@
16:00 UTC

Jan-23 @ 16:00 UTC

Jan-24@
12:00 UTC

Jan-24 @ 12:00 UTC

BECMG 2316/2318 32008KT

Becoming

Becoming Conditions expected by Thu, Jan 23, 2020 @ 18:00 UTC

Wind
  • 320° at 8 KTS
Cloud Levels
  • Few at 1,500' AGL
  • Scattered at 8,000' AGL

Jan-23@
20:00 UTC

Jan-23 @ 20:00 UTC

Jan-24@
00:00 UTC

Jan-24 @ 00:00 UTC

PROB40 TEMPO 2320/2324 4000 TSRA SCT015CB TX26/2319Z TN18/2411Z

Temporary - 40% Likelihood

Temporary - 40% Likelihood during this time.

Conditions
Thunderstorm, Rain
Cloud Levels
  • Scattered at 1,500' AGL